Time;durP1;ratioP1;P1;durP2;ratioP2;P2;SDS_P1;SDS_P2;PMS_P1;PMS_P2;Temp;Humidity;BMP_temperature;BMP_pressure;BME280_temperature;BME280_humidity;BME280_pressure;Samples;Min_cycle;Max_cycle;Signal;HPM_P1;HPM_P2
2022/01/05 00:00:23;;;;;;;6.03;2.92;;;;;;;6.30;100.00;97269.03;4489809;31;20183;-75
2022/01/05 00:02:50;;;;;;;5.25;2.90;;;;;;;6.34;100.00;97266.03;4501364;31;20470;-75
2022/01/05 00:05:17;;;;;;;6.72;2.67;;;;;;;6.29;100.00;97267.44;4501398;31;20422;-75
2022/01/05 00:07:45;;;;;;;3.87;2.50;;;;;;;6.32;100.00;97272.34;4501316;31;20084;-75
2022/01/05 00:10:12;;;;;;;6.30;3.35;;;;;;;6.26;100.00;97268.53;4501394;31;20220;-75
2022/01/05 00:12:39;;;;;;;5.68;3.05;;;;;;;6.29;100.00;97262.22;4501090;31;20092;-75
2022/01/05 00:15:07;;;;;;;3.55;2.50;;;;;;;6.31;100.00;97270.69;4500432;31;20170;-75
2022/01/05 00:17:35;;;;;;;5.50;2.75;;;;;;;6.39;100.00;97268.19;4499973;31;20110;-75
2022/01/05 00:20:03;;;;;;;4.93;2.95;;;;;;;6.40;100.00;97264.59;4498283;31;20088;-75
2022/01/05 00:22:30;;;;;;;6.45;2.72;;;;;;;6.38;100.00;97261.34;4485549;31;20513;-75
2022/01/05 00:24:58;;;;;;;4.30;2.03;;;;;;;6.43;100.00;97247.88;4485410;31;20115;-75
2022/01/05 00:27:25;;;;;;;4.37;2.40;;;;;;;6.60;100.00;97251.44;4485544;32;20153;-75
2022/01/05 00:29:52;;;;;;;4.62;2.62;;;;;;;6.60;100.00;97249.69;4485361;31;20104;-75
2022/01/05 00:32:19;;;;;;;3.10;2.28;;;;;;;6.60;100.00;97247.09;4485418;31;20092;-75
2022/01/05 00:34:47;;;;;;;4.78;2.47;;;;;;;6.55;100.00;97239.69;4485694;31;20351;-75
2022/01/05 00:37:14;;;;;;;4.50;2.33;;;;;;;6.47;100.00;97231.03;4485343;32;20104;-75
2022/01/05 00:39:41;;;;;;;5.22;2.95;;;;;;;6.44;100.00;97239.12;4485318;32;20135;-75
2022/01/05 00:42:08;;;;;;;4.18;2.35;;;;;;;6.36;100.00;97242.47;4485265;31;20115;-75
2022/01/05 00:44:35;;;;;;;5.65;2.67;;;;;;;6.32;100.00;97239.34;4485364;32;20115;-75
2022/01/05 00:47:03;;;;;;;7.53;2.70;;;;;;;6.30;100.00;97245.62;4485655;31;20089;-75
2022/01/05 00:49:30;;;;;;;5.78;2.45;;;;;;;6.45;100.00;97245.94;4485415;31;20115;-75
2022/01/05 00:51:57;;;;;;;3.72;2.60;;;;;;;6.62;100.00;97241.72;4485234;32;20104;-75
2022/01/05 00:54:25;;;;;;;4.60;2.58;;;;;;;6.65;100.00;97244.03;4483934;32;20127;-75
2022/01/05 00:56:52;;;;;;;6.43;2.58;;;;;;;6.59;100.00;97242.84;4485169;31;20088;-75
2022/01/05 00:59:19;;;;;;;4.80;2.37;;;;;;;6.52;100.00;97245.19;4485326;32;20084;-75
2022/01/05 01:01:46;;;;;;;5.00;2.58;;;;;;;6.49;100.00;97242.09;4498406;31;20122;-75
2022/01/05 01:04:13;;;;;;;4.22;2.10;;;;;;;6.44;100.00;97246.94;4500858;31;20108;-75
2022/01/05 01:06:41;;;;;;;3.85;2.35;;;;;;;6.34;100.00;97250.44;4501023;31;20154;-75
2022/01/05 01:09:08;;;;;;;6.10;2.50;;;;;;;6.30;100.00;97261.25;4500918;31;20091;-75
2022/01/05 01:11:36;;;;;;;3.65;2.33;;;;;;;6.25;100.00;97259.09;4500817;31;20114;-75
2022/01/05 01:14:03;;;;;;;5.37;2.80;;;;;;;6.24;100.00;97247.06;4500836;31;20103;-75
2022/01/05 01:16:30;;;;;;;5.62;2.75;;;;;;;6.19;100.00;97252.72;4500848;31;20493;-75
2022/01/05 01:18:58;;;;;;;5.97;2.90;;;;;;;6.20;100.00;97253.53;4501076;31;20114;-75
2022/01/05 01:21:25;;;;;;;3.97;2.28;;;;;;;6.24;100.00;97246.22;4488547;31;20104;-75
2022/01/05 01:23:55;;;;;;;4.50;2.40;;;;;;;6.26;100.00;97236.53;4485008;31;20096;-75
2022/01/05 01:26:28;;;;;;;4.53;2.60;;;;;;;6.37;100.00;97238.88;4484714;32;20085;-75
2022/01/05 01:28:57;;;;;;;6.00;2.55;;;;;;;6.35;100.00;97231.22;4484848;31;20080;-75
2022/01/05 01:31:24;;;;;;;6.20;2.80;;;;;;;6.33;100.00;97233.19;4485451;31;20150;-75
2022/01/05 01:33:52;;;;;;;4.87;2.62;;;;;;;6.34;100.00;97226.19;4484730;31;20092;-75
2022/01/05 01:36:19;;;;;;;4.28;2.45;;;;;;;6.37;100.00;97228.47;4484994;31;20100;-75
2022/01/05 01:38:46;;;;;;;3.70;2.30;;;;;;;6.48;100.00;97228.28;4484840;31;20080;-75
2022/01/05 01:41:13;;;;;;;6.43;2.17;;;;;;;6.52;100.00;97231.38;4484775;31;20104;-75
2022/01/05 01:43:41;;;;;;;4.45;2.78;;;;;;;6.65;100.00;97231.03;4484698;31;20143;-75
2022/01/05 01:46:11;;;;;;;3.78;2.10;;;;;;;6.80;100.00;97232.09;4484819;32;20456;-75
2022/01/05 01:48:38;;;;;;;6.90;2.10;;;;;;;7.05;100.00;97224.47;4484903;31;20136;-75
2022/01/05 01:51:05;;;;;;;3.58;2.28;;;;;;;7.14;100.00;97214.91;4484778;31;20133;-75
2022/01/05 01:53:33;;;;;;;6.62;2.17;;;;;;;7.19;100.00;97223.06;4484785;31;20115;-75
2022/01/05 01:56:00;;;;;;;3.58;2.10;;;;;;;7.22;100.00;97220.16;4484767;31;20587;-75
2022/01/05 01:58:33;;;;;;;2.97;1.92;;;;;;;7.16;100.00;97215.56;4483898;32;20167;-75
2022/01/05 02:01:00;;;;;;;4.15;2.33;;;;;;;7.08;100.00;97217.16;4492955;31;20099;-75
2022/01/05 02:03:28;;;;;;;3.83;2.35;;;;;;;7.13;100.00;97224.53;4500362;31;20116;-75
2022/01/05 02:05:56;;;;;;;4.82;2.08;;;;;;;7.04;100.00;97225.41;4500415;31;20151;-75
2022/01/05 02:08:23;;;;;;;3.65;2.40;;;;;;;7.00;100.00;97224.91;4500345;31;20087;-75
2022/01/05 02:10:51;;;;;;;5.90;2.40;;;;;;;6.99;100.00;97220.69;4500318;31;20195;-75
2022/01/05 02:13:18;;;;;;;3.50;2.35;;;;;;;6.89;100.00;97217.38;4500457;31;20096;-75
2022/01/05 02:15:46;;;;;;;4.00;2.12;;;;;;;6.83;100.00;97223.16;4500296;31;20118;-75
2022/01/05 02:21:05;;;;;;;5.12;2.40;;;;;;;6.72;100.00;97214.66;4491610;31;20087;-75
2022/01/05 02:23:34;;;;;;;3.17;2.08;;;;;;;6.60;100.00;97202.84;4484243;31;20733;-75
2022/01/05 02:26:05;;;;;;;2.97;2.10;;;;;;;6.60;100.00;97213.25;4484314;31;20104;-75
2022/01/05 02:28:33;;;;;;;3.85;2.33;;;;;;;6.60;100.00;97215.03;4484449;31;20175;-75
2022/01/05 02:31:01;;;;;;;4.60;2.70;;;;;;;6.54;100.00;97199.06;4484443;31;20084;-75
2022/01/05 02:33:29;;;;;;;4.78;2.45;;;;;;;6.63;100.00;97199.94;4484408;31;20104;-75
2022/01/05 02:35:56;;;;;;;5.10;2.55;;;;;;;6.60;100.00;97207.22;4484074;31;20183;-75
2022/01/05 02:38:23;;;;;;;6.00;2.65;;;;;;;6.57;100.00;97198.75;4485797;31;20092;-75
2022/01/05 02:40:51;;;;;;;4.32;2.67;;;;;;;6.54;100.00;97193.84;4486032;31;20130;-75
2022/01/05 02:43:18;;;;;;;5.53;2.53;;;;;;;6.51;100.00;97183.75;4486072;31;20480;-75
2022/01/05 02:45:45;;;;;;;4.07;2.65;;;;;;;6.46;100.00;97178.16;4486124;31;20084;-75
2022/01/05 02:48:13;;;;;;;7.12;2.85;;;;;;;6.45;100.00;97186.97;4486115;31;20084;-75
2022/01/05 02:50:40;;;;;;;5.37;3.15;;;;;;;6.28;100.00;97187.78;4486117;31;20200;-75
2022/01/05 02:53:07;;;;;;;5.12;2.67;;;;;;;6.29;100.00;97179.00;4486210;31;20118;-75
2022/01/05 02:55:35;;;;;;;6.95;2.97;;;;;;;6.18;100.00;97182.66;4485865;32;20104;-75
2022/01/05 02:58:03;;;;;;;5.53;2.97;;;;;;;6.16;100.00;97180.22;4486108;31;20142;-75
2022/01/05 03:00:30;;;;;;;6.68;2.62;;;;;;;6.18;100.00;97183.47;4491034;31;20118;-75
2022/01/05 03:02:58;;;;;;;4.07;2.30;;;;;;;6.26;100.00;97189.72;4501832;31;20096;-75
2022/01/05 03:05:25;;;;;;;5.32;2.42;;;;;;;6.37;100.00;97186.88;4501633;31;20520;-75
2022/01/05 03:07:53;;;;;;;4.32;2.30;;;;;;;6.41;100.00;97180.41;4501966;31;20092;-75
2022/01/05 03:10:21;;;;;;;6.15;2.33;;;;;;;6.47;100.00;97187.63;4501735;31;20433;-75
2022/01/05 03:12:48;;;;;;;7.18;2.45;;;;;;;6.50;100.00;97192.50;4501677;31;20104;-75
2022/01/05 03:15:16;;;;;;;4.80;2.65;;;;;;;6.53;100.00;97191.41;4501637;31;20613;-75
2022/01/05 03:17:43;;;;;;;5.47;2.30;;;;;;;6.63;100.00;97180.91;4501737;31;20496;-75
2022/01/05 03:20:12;;;;;;;5.20;2.47;;;;;;;6.73;100.00;97174.63;4497600;31;20198;-75
2022/01/05 03:22:40;;;;;;;4.00;2.22;;;;;;;6.96;100.00;97181.13;4485852;31;20096;-75
2022/01/05 03:25:15;;;;;;;7.85;2.40;;;;;;;7.07;100.00;97186.91;4485894;31;20187;-75
2022/01/05 03:27:44;;;;;;;3.37;2.15;;;;;;;7.04;100.00;97183.75;4485838;32;20092;-75
2022/01/05 03:30:14;;;;;;;5.78;2.42;;;;;;;7.01;100.00;97184.06;4485905;31;20516;-75
2022/01/05 03:35:42;;;;;;;5.12;2.17;;;;;;;6.85;100.00;97190.00;4477778;32;20119;-75
2022/01/05 03:38:10;;;;;;;4.43;2.20;;;;;;;6.78;100.00;97181.16;4485912;31;20102;-75
2022/01/05 03:40:37;;;;;;;3.85;2.33;;;;;;;6.75;100.00;97174.47;4485710;31;20104;-75
2022/01/05 03:43:06;;;;;;;4.93;2.70;;;;;;;6.67;100.00;97175.22;4485664;32;20131;-75
2022/01/05 03:45:35;;;;;;;6.18;2.53;;;;;;;6.69;100.00;97175.91;4485711;31;20096;-75
2022/01/05 03:48:04;;;;;;;3.47;2.10;;;;;;;6.63;100.00;97170.50;4485458;31;20079;-75
2022/01/05 03:50:32;;;;;;;5.28;2.28;;;;;;;6.60;100.00;97178.59;4484788;32;20104;-75
2022/01/05 03:52:59;;;;;;;4.80;2.58;;;;;;;6.64;100.00;97174.72;4485601;31;20093;-75
2022/01/05 03:55:26;;;;;;;6.07;2.40;;;;;;;6.62;100.00;97174.06;4485501;32;20453;-75
2022/01/05 03:57:54;;;;;;;4.53;2.50;;;;;;;6.77;100.00;97161.31;4485506;32;20088;-75
2022/01/05 04:00:21;;;;;;;4.75;2.12;;;;;;;6.79;100.00;97154.19;4489614;31;20103;-75
2022/01/05 04:02:48;;;;;;;3.42;2.33;;;;;;;6.86;100.00;97156.00;4501345;31;20502;-75
2022/01/05 04:05:16;;;;;;;5.30;2.40;;;;;;;6.84;100.00;97150.13;4501478;31;20104;-75
2022/01/05 04:07:43;;;;;;;5.95;2.25;;;;;;;6.84;100.00;97142.31;4501364;31;20088;-75
2022/01/05 04:10:10;;;;;;;5.28;2.50;;;;;;;6.84;100.00;97151.94;4501387;31;20533;-75
2022/01/05 04:12:37;;;;;;;3.22;2.10;;;;;;;6.89;100.00;97155.72;4501176;31;20468;-75
2022/01/05 04:15:05;;;;;;;3.85;1.92;;;;;;;6.95;100.00;97156.06;4501495;31;20107;-75
2022/01/05 04:17:32;;;;;;;5.03;2.22;;;;;;;6.97;100.00;97154.12;4501157;31;20167;-75
2022/01/05 04:20:00;;;;;;;3.83;2.03;;;;;;;6.93;100.00;97151.84;4498451;31;20100;-75
2022/01/05 04:22:27;;;;;;;3.35;2.20;;;;;;;6.95;100.00;97148.25;4485306;31;20134;-75
2022/01/05 04:24:55;;;;;;;3.33;2.08;;;;;;;6.95;100.00;97143.03;4485443;32;20092;-75
2022/01/05 04:27:22;;;;;;;2.78;2.00;;;;;;;6.96;100.00;97149.87;4485206;31;20104;-75
2022/01/05 04:29:49;;;;;;;3.33;2.45;;;;;;;6.99;100.00;97146.97;4485566;31;20093;-75
2022/01/05 04:32:17;;;;;;;3.90;2.15;;;;;;;6.89;100.00;97150.50;4485369;31;20598;-75
2022/01/05 04:34:44;;;;;;;5.70;2.72;;;;;;;6.89;100.00;97149.69;4485435;31;20108;-75
2022/01/05 04:37:32;;;;;;;4.28;2.15;;;;;;;6.80;100.00;97148.81;4485198;31;20096;-75
2022/01/05 04:40:00;;;;;;;3.03;2.05;;;;;;;6.79;100.00;97148.97;4485397;31;20100;-75
2022/01/05 04:42:27;;;;;;;4.50;1.95;;;;;;;6.69;100.00;97144.69;4485194;31;20119;-75
2022/01/05 04:44:55;;;;;;;6.00;2.70;;;;;;;6.60;100.00;97149.97;4485344;31;20522;-75
2022/01/05 04:47:22;;;;;;;4.90;2.25;;;;;;;6.64;100.00;97141.72;4485051;32;20118;-75
2022/01/05 04:49:49;;;;;;;4.75;2.05;;;;;;;6.68;100.00;97134.44;4485289;31;20442;-75
2022/01/05 04:52:16;;;;;;;4.40;2.03;;;;;;;6.91;100.00;97143.34;4485203;32;20115;-75
2022/01/05 04:54:44;;;;;;;3.60;2.05;;;;;;;6.89;100.00;97141.88;4485380;31;20110;-75
2022/01/05 04:57:11;;;;;;;4.70;2.78;;;;;;;6.81;100.00;97132.22;4485133;31;20154;-75
2022/01/05 04:59:38;;;;;;;5.45;2.65;;;;;;;6.74;100.00;97133.81;4484428;31;20151;-74
2022/01/05 05:02:05;;;;;;;5.53;2.28;;;;;;;6.65;100.00;97127.75;4500176;31;20122;-75
2022/01/05 05:04:32;;;;;;;8.23;3.08;;;;;;;6.60;100.00;97131.75;4500761;31;20093;-74
2022/01/05 05:07:00;;;;;;;5.25;2.90;;;;;;;6.65;100.00;97129.53;4500137;31;20139;-75
2022/01/05 05:09:27;;;;;;;3.83;2.22;;;;;;;6.61;100.00;97130.81;4500884;31;20441;-75
2022/01/05 05:11:54;;;;;;;4.78;2.30;;;;;;;6.52;100.00;97137.72;4500959;31;20092;-75
2022/01/05 05:14:22;;;;;;;3.40;2.00;;;;;;;6.44;100.00;97146.28;4500824;31;20151;-75
2022/01/05 05:16:49;;;;;;;4.12;2.40;;;;;;;6.41;100.00;97140.59;4500314;31;20114;-75
2022/01/05 05:19:16;;;;;;;4.87;2.40;;;;;;;6.39;100.00;97138.13;4500878;31;20087;-75
2022/01/05 05:21:43;;;;;;;3.15;2.25;;;;;;;6.35;100.00;97137.59;4500633;31;20179;-75
2022/01/05 05:24:13;;;;;;;3.42;2.42;;;;;;;6.45;100.00;97137.53;4500384;31;20100;-75
2022/01/05 05:26:40;;;;;;;5.18;2.62;;;;;;;6.43;100.00;97146.44;4500529;31;20102;-75
2022/01/05 05:29:07;;;;;;;4.70;2.70;;;;;;;6.42;100.00;97137.84;4500343;31;20600;-75
2022/01/05 05:31:35;;;;;;;6.00;2.45;;;;;;;6.45;100.00;97134.94;4501229;31;20118;-75
2022/01/05 05:34:02;;;;;;;5.65;2.80;;;;;;;6.46;100.00;97139.16;4500688;31;20119;-75
2022/01/05 05:36:29;;;;;;;4.75;2.20;;;;;;;6.55;100.00;97140.84;4500804;31;20134;-75
2022/01/05 05:38:56;;;;;;;4.12;2.45;;;;;;;6.53;100.00;97144.56;4500651;31;20088;-75
2022/01/05 05:41:23;;;;;;;6.50;2.45;;;;;;;6.56;100.00;97145.06;4500715;31;20446;-75
2022/01/05 05:43:51;;;;;;;4.20;2.35;;;;;;;6.58;100.00;97150.13;4500177;31;20080;-75
2022/01/05 05:46:19;;;;;;;3.85;1.85;;;;;;;6.74;100.00;97152.03;4500552;31;20100;-75
2022/01/05 05:48:46;;;;;;;3.83;2.60;;;;;;;6.80;100.00;97159.22;4493914;31;20123;-75
2022/01/05 05:51:13;;;;;;;3.90;2.30;;;;;;;6.68;100.00;97157.84;4500555;31;20142;-75
2022/01/05 05:53:40;;;;;;;3.92;2.65;;;;;;;6.77;100.00;97164.75;4490506;31;20744;-75
2022/01/05 05:56:07;;;;;;;3.58;2.50;;;;;;;6.83;100.00;97160.69;4496982;31;20083;-75
2022/01/05 05:58:35;;;;;;;3.47;1.95;;;;;;;6.79;100.00;97155.00;4495166;31;20099;-75
2022/01/05 06:01:02;;;;;;;4.95;3.05;;;;;;;6.99;100.00;97162.59;4495350;31;20579;-75
2022/01/05 06:03:30;;;;;;;5.75;2.58;;;;;;;6.92;100.00;97170.22;4496507;31;20489;-75
2022/01/05 06:05:57;;;;;;;4.78;2.60;;;;;;;6.79;100.00;97165.41;4498543;31;20524;-75
2022/01/05 06:08:24;;;;;;;5.57;2.50;;;;;;;6.74;100.00;97162.44;4497928;31;20786;-75
2022/01/05 06:10:51;;;;;;;3.60;2.33;;;;;;;6.74;100.00;97181.47;4494067;31;20104;-75
2022/01/05 06:13:19;;;;;;;6.40;2.83;;;;;;;6.70;100.00;97177.53;4490855;31;20118;-75
2022/01/05 06:15:46;;;;;;;6.65;2.65;;;;;;;6.77;100.00;97166.50;4497938;31;20566;-75
2022/01/05 06:18:13;;;;;;;3.50;2.20;;;;;;;6.79;100.00;97175.00;4492900;31;20100;-75
2022/01/05 06:20:40;;;;;;;2.95;2.00;;;;;;;6.96;100.00;97168.09;4489593;31;20103;-75
2022/01/05 06:23:07;;;;;;;4.40;2.05;;;;;;;6.93;100.00;97175.25;4495550;31;20096;-75
2022/01/05 06:25:34;;;;;;;3.50;2.33;;;;;;;7.02;100.00;97170.09;4489985;31;20150;-75
2022/01/05 06:28:02;;;;;;;2.92;1.95;;;;;;;7.33;100.00;97172.19;4497126;31;20130;-75
2022/01/05 06:30:29;;;;;;;3.40;2.00;;;;;;;7.37;100.00;97173.53;4487771;31;20097;-75
2022/01/05 06:32:56;;;;;;;4.00;2.30;;;;;;;7.29;100.00;97174.31;4492822;31;20091;-75
2022/01/05 06:35:24;;;;;;;6.30;2.12;;;;;;;7.22;100.00;97181.94;4489497;31;20095;-75
2022/01/05 06:37:52;;;;;;;3.20;2.05;;;;;;;7.10;100.00;97175.34;4492407;31;20442;-76
2022/01/05 06:40:22;;;;;;;4.95;2.70;;;;;;;7.07;100.00;97183.47;4492632;31;20131;-76
2022/01/05 06:42:49;;;;;;;4.97;2.12;;;;;;;7.10;100.00;97188.34;4490343;31;20133;-75
2022/01/05 06:45:16;;;;;;;3.35;2.10;;;;;;;7.17;100.00;97189.37;4498225;31;20122;-76
2022/01/05 06:47:44;;;;;;;5.40;2.95;;;;;;;7.23;100.00;97175.72;4496180;31;20156;-75
2022/01/05 06:50:12;;;;;;;8.38;3.10;;;;;;;7.14;100.00;97174.06;4491887;31;20108;-76
2022/01/05 06:52:44;;;;;;;4.80;2.72;;;;;;;7.17;100.00;97173.75;4495237;31;20096;-77
2022/01/05 06:55:12;;;;;;;4.65;2.20;;;;;;;7.15;100.00;97180.91;4498651;31;20159;-75
2022/01/05 06:57:40;;;;;;;4.68;2.25;;;;;;;7.30;100.00;97188.97;4498790;31;20095;-77
2022/01/05 07:00:09;;;;;;;4.87;3.25;;;;;;;7.28;100.00;97191.72;4496473;31;20163;-77
2022/01/05 07:02:37;;;;;;;4.00;2.28;;;;;;;7.45;100.00;97186.59;4491127;31;20088;-77
2022/01/05 07:05:06;;;;;;;4.97;2.60;;;;;;;7.43;100.00;97184.16;4490796;31;20097;-76
2022/01/05 07:07:33;;;;;;;3.80;2.60;;;;;;;7.57;100.00;97184.50;4489543;31;20135;-76
2022/01/05 07:10:00;;;;;;;4.37;2.53;;;;;;;7.53;100.00;97178.81;4487294;31;20116;-75
2022/01/05 07:12:27;;;;;;;8.23;3.08;;;;;;;7.57;100.00;97174.91;4493904;31;20378;-75
2022/01/05 07:14:55;;;;;;;7.18;2.67;;;;;;;7.57;100.00;97177.53;4491626;31;20571;-78
2022/01/05 07:17:22;;;;;;;3.72;2.58;;;;;;;7.69;100.00;97187.66;4484312;31;20095;-77
2022/01/05 07:19:49;;;;;;;4.85;2.85;;;;;;;7.41;100.00;97193.09;4494990;31;20091;-76
2022/01/05 07:22:16;;;;;;;3.67;2.60;;;;;;;7.17;100.00;97194.59;4497617;31;20118;-76
2022/01/05 07:24:44;;;;;;;5.90;3.30;;;;;;;7.17;100.00;97199.78;4498811;31;20119;-75
2022/01/05 07:27:12;;;;;;;5.80;3.40;;;;;;;7.26;100.00;97204.06;4500175;31;20130;-76
2022/01/05 07:29:39;;;;;;;4.55;2.42;;;;;;;7.29;100.00;97208.16;4497965;31;20151;-76
2022/01/05 07:32:06;;;;;;;5.82;2.50;;;;;;;7.28;100.00;97207.34;4500490;31;20561;-75
2022/01/05 07:34:34;;;;;;;6.00;3.05;;;;;;;7.27;100.00;97203.09;4494920;31;20118;-75
2022/01/05 07:37:01;;;;;;;5.03;2.62;;;;;;;7.33;100.00;97206.88;4496847;31;20147;-75
2022/01/05 07:39:29;;;;;;;3.75;2.40;;;;;;;7.37;100.00;97200.38;4500628;31;20122;-74
2022/01/05 07:41:56;;;;;;;5.90;3.15;;;;;;;7.43;100.00;97193.75;4500368;31;20108;-74
2022/01/05 07:44:23;;;;;;;5.75;2.60;;;;;;;7.48;100.00;97196.72;4494990;31;20123;-75
2022/01/05 07:46:51;;;;;;;9.13;2.70;;;;;;;7.62;100.00;97203.09;4494265;31;20104;-74
2022/01/05 07:49:18;;;;;;;5.90;2.20;;;;;;;7.68;100.00;97191.25;4495416;31;20167;-75
2022/01/05 07:51:45;;;;;;;5.72;2.78;;;;;;;7.73;100.00;97183.75;4491417;31;20122;-74
2022/01/05 07:54:12;;;;;;;6.32;2.50;;;;;;;7.82;100.00;97190.63;4497862;31;20096;-73
2022/01/05 07:56:39;;;;;;;4.65;2.80;;;;;;;7.96;100.00;97195.25;4499958;31;20153;-74
2022/01/05 07:59:06;;;;;;;3.62;2.17;;;;;;;8.08;100.00;97193.12;4497439;31;20122;-74
2022/01/05 08:01:34;;;;;;;6.40;2.55;;;;;;;8.10;100.00;97190.34;4493016;31;20104;-74
2022/01/05 08:04:01;;;;;;;7.60;3.00;;;;;;;8.23;100.00;97198.53;4500488;31;20156;-74
2022/01/05 08:06:29;;;;;;;6.28;2.42;;;;;;;8.32;99.75;97204.59;4498104;31;20107;-74
2022/01/05 08:08:56;;;;;;;5.05;3.20;;;;;;;8.38;99.83;97195.31;4499526;31;20096;-74
2022/01/05 08:11:23;;;;;;;5.50;2.65;;;;;;;8.44;100.00;97208.53;4499123;31;20111;-75
2022/01/05 08:13:52;;;;;;;5.87;2.28;;;;;;;8.48;99.14;97212.47;4498729;31;20456;-75
2022/01/05 08:16:19;;;;;;;6.93;2.28;;;;;;;8.52;98.54;97219.00;4499114;31;20088;-75
2022/01/05 08:18:47;;;;;;;4.57;2.42;;;;;;;8.56;98.36;97226.50;4493273;31;20461;-74
2022/01/05 08:21:14;;;;;;;7.87;2.50;;;;;;;8.59;97.84;97221.75;4496170;31;20096;-75
2022/01/05 08:23:41;;;;;;;4.57;3.10;;;;;;;8.63;97.62;97228.28;4499970;31;20422;-74
2022/01/05 08:26:09;;;;;;;4.22;2.80;;;;;;;8.61;97.80;97221.59;4499140;31;20461;-73
2022/01/05 08:28:36;;;;;;;9.60;3.10;;;;;;;8.73;97.11;97222.91;4493235;31;20129;-74
2022/01/05 08:31:03;;;;;;;5.50;2.62;;;;;;;8.71;97.42;97224.88;4497254;31;20126;-73
2022/01/05 08:33:30;;;;;;;3.72;2.53;;;;;;;8.82;96.37;97231.56;4499330;31;20104;-76
2022/01/05 08:35:58;;;;;;;6.78;3.00;;;;;;;8.89;96.37;97227.31;4496808;31;20146;-75
2022/01/05 08:38:25;;;;;;;4.00;2.58;;;;;;;8.97;95.85;97239.53;4500212;31;20171;-75
2022/01/05 08:40:52;;;;;;;5.53;2.70;;;;;;;9.04;95.48;97236.09;4499566;31;20126;-75
2022/01/05 08:43:19;;;;;;;4.25;2.22;;;;;;;8.99;95.62;97232.34;4499986;31;20092;-74
2022/01/05 08:45:47;;;;;;;6.05;3.20;;;;;;;8.96;95.90;97220.47;4499763;31;20195;-74
2022/01/05 08:48:15;;;;;;;3.87;2.50;;;;;;;9.04;96.29;97223.03;4499809;31;20465;-76
2022/01/05 08:50:43;;;;;;;5.80;3.00;;;;;;;8.99;95.95;97242.78;4495076;31;20515;-75
2022/01/05 08:53:10;;;;;;;4.30;2.45;;;;;;;8.93;96.82;97241.66;4500922;31;20092;-77
2022/01/05 08:55:40;;;;;;;2.78;2.20;;;;;;;8.91;97.35;97230.56;4500440;31;20124;-77
2022/01/05 08:58:08;;;;;;;6.82;2.60;;;;;;;8.93;97.06;97238.22;4499516;31;20091;-77
2022/01/05 09:00:36;;;;;;;5.18;2.80;;;;;;;8.93;97.53;97236.44;4498858;31;20108;-75
2022/01/05 09:03:04;;;;;;;7.97;2.65;;;;;;;8.93;97.17;97239.03;4495530;31;20831;-76
2022/01/05 09:05:33;;;;;;;7.78;2.90;;;;;;;8.97;97.11;97242.16;4495903;31;20180;-76
2022/01/05 09:08:00;;;;;;;6.32;3.00;;;;;;;8.96;96.98;97256.19;4499419;31;20113;-76
2022/01/05 09:10:29;;;;;;;5.93;3.37;;;;;;;9.03;97.50;97252.75;4498402;31;20103;-78
2022/01/05 09:12:57;;;;;;;6.18;2.85;;;;;;;9.10;96.36;97250.31;4499161;31;20111;-77
2022/01/05 09:15:25;;;;;;;8.07;3.62;;;;;;;9.09;96.23;97247.88;4500197;31;20104;-78
2022/01/05 09:17:53;;;;;;;5.70;2.90;;;;;;;9.15;95.84;97255.03;4498464;31;20138;-76
2022/01/05 09:20:21;;;;;;;6.00;2.83;;;;;;;9.12;96.36;97264.00;4499000;31;20103;-75
2022/01/05 09:22:48;;;;;;;6.07;3.00;;;;;;;9.14;96.28;97258.63;4497937;31;20100;-77
2022/01/05 09:25:18;;;;;;;7.00;2.60;;;;;;;9.11;95.87;97245.88;4495810;31;21810;-77
2022/01/05 09:27:46;;;;;;;5.18;2.35;;;;;;;9.19;95.62;97254.53;4500182;31;20087;-74
2022/01/05 09:30:14;;;;;;;5.22;2.60;;;;;;;9.22;95.53;97263.84;4500351;31;20160;-74
2022/01/05 09:32:42;;;;;;;5.15;2.45;;;;;;;9.02;96.49;97273.81;4498727;31;20200;-74
2022/01/05 09:35:14;;;;;;;5.20;2.60;;;;;;;8.94;97.08;97287.69;4498876;31;20088;-75
2022/01/05 09:37:52;;;;;;;5.57;2.87;;;;;;;8.85;96.84;97267.78;4486872;31;20091;-74
2022/01/05 09:43:06;;;;;;;4.43;2.55;;;;;;;8.67;96.56;97273.97;4497994;31;20092;-73
2022/01/05 09:45:36;;;;;;;5.37;2.45;;;;;;;8.50;97.30;97272.31;4495099;31;20096;-74
2022/01/05 09:48:37;;;;;;;5.18;2.40;;;;;;;8.48;97.19;97279.50;4495736;31;20526;-74
2022/01/05 09:51:09;;;;;;;3.37;2.08;;;;;;;8.41;97.37;97275.88;4485096;31;20131;-74
2022/01/05 09:53:40;;;;;;;3.70;2.42;;;;;;;8.28;97.99;97271.94;4500070;31;20430;-74
2022/01/05 09:56:30;;;;;;;5.00;2.40;;;;;;;8.22;98.46;97267.34;4498645;31;20108;-73
2022/01/05 09:59:02;;;;;;;5.47;2.60;;;;;;;8.08;99.18;97262.72;4495567;31;20092;-74
2022/01/05 10:01:34;;;;;;;4.93;2.80;;;;;;;8.09;99.25;97253.94;4497045;31;20453;-73
2022/01/05 10:04:03;;;;;;;4.05;3.12;;;;;;;8.08;99.46;97265.34;4496367;31;20112;-73
2022/01/05 10:06:36;;;;;;;4.25;2.72;;;;;;;8.04;99.66;97267.47;4496509;31;20801;-74
2022/01/05 10:09:04;;;;;;;4.68;2.67;;;;;;;7.98;100.00;97270.72;4490362;31;20116;-74
2022/01/05 10:11:31;;;;;;;7.35;2.72;;;;;;;7.95;100.00;97266.63;4496491;31;20374;-73
2022/01/05 10:13:58;;;;;;;5.18;2.87;;;;;;;7.90;100.00;97266.28;4495759;31;20108;-74
2022/01/05 10:16:26;;;;;;;4.72;2.50;;;;;;;7.93;100.00;97272.94;4488654;31;20127;-74
2022/01/05 10:18:53;;;;;;;4.00;2.33;;;;;;;7.85;100.00;97271.13;4490717;31;20146;-73
2022/01/05 10:21:21;;;;;;;4.43;2.72;;;;;;;7.82;100.00;97281.88;4491636;31;20096;-73
2022/01/05 10:23:50;;;;;;;4.28;2.58;;;;;;;7.81;100.00;97275.84;4497703;31;20108;-73
2022/01/05 10:26:21;;;;;;;5.18;2.87;;;;;;;7.82;100.00;97274.06;4498861;31;20119;-73
2022/01/05 10:28:50;;;;;;;4.45;2.60;;;;;;;7.76;100.00;97272.06;4499092;31;20096;-74
2022/01/05 10:31:19;;;;;;;3.97;2.50;;;;;;;7.64;100.00;97285.41;4499340;31;20200;-73
2022/01/05 10:33:47;;;;;;;5.30;2.83;;;;;;;7.61;100.00;97283.06;4497722;31;20153;-75
2022/01/05 10:36:14;;;;;;;5.18;2.60;;;;;;;7.61;100.00;97280.47;4497329;31;20557;-74
2022/01/05 10:38:55;;;;;;;2.58;2.10;;;;;;;7.61;100.00;97270.03;4492444;31;20118;-74
2022/01/05 10:41:26;;;;;;;2.75;1.87;;;;;;;7.60;100.00;97278.84;4494040;31;20099;-74
2022/01/05 10:44:16;;;;;;;4.35;1.77;;;;;;;7.59;100.00;97286.81;4497196;31;20130;-75
2022/01/05 10:46:57;;;;;;;3.03;2.12;;;;;;;7.51;100.00;97285.00;4497011;31;20176;-74
2022/01/05 10:49:30;;;;;;;4.45;2.30;;;;;;;7.42;100.00;97297.16;4492617;31;20441;-74
2022/01/05 10:52:02;;;;;;;2.30;1.30;;;;;;;7.52;100.00;97302.25;4490888;31;20111;-75
2022/01/05 10:54:30;;;;;;;1.27;0.77;;;;;;;7.32;100.00;97306.03;4497861;31;20164;-73
2022/01/05 10:57:08;;;;;;;1.10;0.60;;;;;;;7.17;100.00;97306.56;4499283;31;20104;-73
2022/01/05 10:59:38;;;;;;;0.93;0.60;;;;;;;7.01;100.00;97301.25;4499447;31;20095;-73
2022/01/05 11:02:26;;;;;;;0.80;0.50;;;;;;;6.87;100.00;97305.19;4499143;31;20210;-73
2022/01/05 11:05:12;;;;;;;0.40;0.30;;;;;;;6.77;100.00;97302.69;4495685;31;20108;-72
2022/01/05 11:07:42;;;;;;;1.65;0.70;;;;;;;6.75;100.00;97312.41;4492779;31;20132;-72
2022/01/05 11:10:12;;;;;;;1.67;0.80;;;;;;;6.65;100.00;97311.69;4498985;31;20111;-73
2022/01/05 11:12:43;;;;;;;0.55;0.40;;;;;;;6.61;100.00;97325.94;4488725;31;20107;-72
2022/01/05 11:15:28;;;;;;;1.08;0.70;;;;;;;6.56;100.00;97336.81;4499617;31;20547;-72
2022/01/05 11:18:12;;;;;;;0.88;0.60;;;;;;;6.55;100.00;97335.16;4499068;31;20176;-72
2022/01/05 11:21:01;;;;;;;0.40;0.40;;;;;;;6.53;100.00;97327.50;4498244;31;20116;-73
2022/01/05 11:23:31;;;;;;;1.02;0.57;;;;;;;6.52;100.00;97323.25;4495825;31;20092;-74
2022/01/05 11:26:01;;;;;;;0.68;0.40;;;;;;;6.42;100.00;97330.31;4493228;31;20207;-72
2022/01/05 11:28:29;;;;;;;0.37;0.37;;;;;;;6.44;100.00;97328.38;4497505;31;20829;-72
2022/01/05 11:30:57;;;;;;;0.50;0.50;;;;;;;6.35;100.00;97340.47;4499219;31;20130;-74
2022/01/05 11:33:26;;;;;;;1.83;0.90;;;;;;;6.27;100.00;97339.56;4495416;31;20183;-73
2022/01/05 11:35:53;;;;;;;1.30;0.82;;;;;;;6.24;100.00;97342.44;4497874;31;20103;-74
2022/01/05 11:38:20;;;;;;;0.90;0.75;;;;;;;6.21;100.00;97349.59;4497531;31;20468;-73
2022/01/05 11:40:54;;;;;;;1.17;0.90;;;;;;;6.14;100.00;97373.72;4497521;31;20100;-74
2022/01/05 11:43:28;;;;;;;1.10;0.70;;;;;;;6.21;100.00;97380.78;4497324;31;20088;-73
2022/01/05 11:45:56;;;;;;;2.05;0.85;;;;;;;6.19;100.00;97372.31;4496667;31;20142;-73
2022/01/05 11:48:29;;;;;;;1.27;0.90;;;;;;;6.21;100.00;97354.78;4499336;31;20112;-74